Airfield :







YOU CAN JOIN US ON...

 
LOGIN :

Register | Disclaimer

   EN    FR    IT 

 









Legend :    VFR   Marginal VFR   IFR   Intensive IFR   Very Intensive IFR
Visi :
Ceiling :
>= 8 km
>= 3000ft
5 to 8 km
1000 to 3000 ft
1500m to 5 km
500 to 1000 ft
800 to 1500m
200 to 500 ft
< 800m
< 200 ft
Symbols :   Thunderstorms  Fog  Heavy snow  Heavy precipitations  Wind > 20 kt







- Airport Elevation : 108 ft
- IATA code : YGP


CYGP - Gaspé

CURRENT METAR :
  • 220100Z 00000KT 15SM SKC 07/04 A3008 RMK SLP187

EXPIRED METARs :
  • 220000Z 26006KT 15SM SKC 09/04 A3008 RMK SLP187
  • 212300Z 28008KT 15SM FEW300 12/04 A3006 RMK CI2 SLP183

TAF TAF CYGP
Valid from the 21 at 20:00 until the 22 at 08:00 UTC


211938Z 2120/2208 32010KT P6SM SKC
BECMG 2123/2201 27005KT RMK NXT FCST BY 220200Z
No reported NOTAMs for that airfield.



MET'MAP, your aeronautical weather chart ! - Copyright ORBIFLY December 2007 - Disclaimer

ORBIFLY MET'MAP TEAM :

Programming & Development : Alexandra Zaïnal
Concept & Development : Baudouin d'Aumeries
Co-Development & Prog : Marc-Olivier Méhu
Technical & hardware support : Manuel Goepfert

Contact : metmap@orbifly.com




SOURCES & CREDITS :

   NOAA